Weather at Memorial Field

Public forecast

Using degrees Fahrenheit for public forecast. Weather courtesy of forecast.io.

Current aviation weather report (METAR) for Memorial Field

Retrieved 2021/09/28 12:53 UTC (56 minutes ago):

KHOT 281253Z AUTO 00000KT 9SM OVC009 20/18 A2997 RMK AO2 SLP142 T02000178

Aviation forecast (TAF) for Memorial Field

Retrieved 2021/09/28 14:09 UTC (0 seconds ago):

TAF COR KHOT 281406Z 2814/2912 17006KT P6SM OVC007 FM281500 17006KT P6SM SCT050 BKN120 OVC250 FM290600 VRB05KT 5SM BR OVC050 FM291000 18006KT 4SM BR VCSH BKN030 OVC050